Time;durP1;ratioP1;P1;durP2;ratioP2;P2;SDS_P1;SDS_P2;PMS_P1;PMS_P2;Temp;Humidity;BMP_temperature;BMP_pressure;BME280_temperature;BME280_humidity;BME280_pressure;Samples;Min_cycle;Max_cycle;Signal;HPM_P1;HPM_P2
2023/06/11 00:00:04;;;;;;;;;;;;;;;;;;6282774;22;20345;-93
2023/06/11 00:02:33;;;;;;;;;;;;;;;;;;6282870;22;19978;-94
2023/06/11 00:04:59;;;;;;;;;;;;;;;;;;6282981;22;19914;-92
2023/06/11 00:07:25;;;;;;;;;;;;;;;;;;6283242;22;19954;-91
2023/06/11 00:09:51;;;;;;;;;;;;;;;;;;6283353;22;19989;-93
2023/06/11 00:12:17;;;;;;;;;;;;;;;;;;6283085;22;19930;-92
2023/06/11 00:14:43;;;;;;;;;;;;;;;;;;6282428;22;19919;-94
2023/06/11 00:17:09;;;;;;;;;;;;;;;;;;6281869;22;19916;-93
2023/06/11 00:19:35;;;;;;;;;;;;;;;;;;6282530;22;19923;-94
2023/06/11 00:22:02;;;;;;;;;;;;;;;;;;6282746;22;19964;-94
2023/06/11 00:24:28;;;;;;;;;;;;;;;;;;6282106;22;19919;-92
2023/06/11 00:26:55;;;;;;;;;;;;;;;;;;6281981;22;19922;-93
2023/06/11 00:29:21;;;;;;;;;;;;;;;;;;6282305;22;19922;-93
2023/06/11 00:31:47;;;;;;;;;;;;;;;;;;6282397;22;19919;-93
2023/06/11 00:34:13;;;;;;;;;;;;;;;;;;6282353;22;19918;-91
2023/06/11 00:36:40;;;;;;;;;;;;;;;;;;6282095;22;19915;-92
2023/06/11 00:39:06;;;;;;;;;;;;;;;;;;6282304;22;19919;-94
2023/06/11 00:41:34;;;;;;;;;;;;;;;;;;6281171;22;21353;-94
2023/06/11 00:44:02;;;;;;;;;;;;;;;;;;6282494;22;19986;-94
2023/06/11 00:46:31;;;;;;;;;;;;;;;;;;6282478;22;19998;-92
2023/06/11 00:48:58;;;;;;;;;;;;;;;;;;6281628;22;19937;-94
2023/06/11 00:51:24;;;;;;;;;;;;;;;;;;6282069;22;19922;-93
2023/06/11 00:53:54;;;;;;;;;;;;;;;;;;6281574;22;19918;-93
2023/06/11 00:56:21;;;;;;;;;;;;;;;;;;6282335;22;19915;-92
2023/06/11 00:58:48;;;;;;;;;;;;;;;;;;6281998;22;19918;-95
2023/06/11 01:01:17;;;;;;;;;;;;;;;;;;6281659;22;19938;-93
2023/06/11 01:03:43;;;;;;;;;;;;;;;;;;6281355;22;19914;-92
2023/06/11 01:06:11;;;;;;;;;;;;;;;;;;6281573;22;20000;-93
2023/06/11 01:08:38;;;;;;;;;;;;;;;;;;6281488;22;19915;-91
2023/06/11 01:11:08;;;;;;;;;;;;;;;;;;6282958;22;19946;-94
2023/06/11 01:13:36;;;;;;;;;;;;;;;;;;6282087;22;19925;-93
2023/06/11 01:16:02;;;;;;;;;;;;;;;;;;6281656;22;20244;-91
2023/06/11 01:18:28;;;;;;;;;;;;;;;;;;6281875;22;19922;-94
2023/06/11 01:20:54;;;;;;;;;;;;;;;;;;6282669;22;19914;-92
2023/06/11 01:23:20;;;;;;;;;;;;;;;;;;6282247;22;20340;-91
2023/06/11 01:25:46;;;;;;;;;;;;;;;;;;6282516;22;19919;-93
2023/06/11 01:28:16;;;;;;;;;;;;;;;;;;6282301;22;19915;-92
2023/06/11 01:30:45;;;;;;;;;;;;;;;;;;6282781;22;19955;-93
2023/06/11 01:33:13;;;;;;;;;;;;;;;;;;6282221;22;19926;-92
2023/06/11 01:35:40;;;;;;;;;;;;;;;;;;6282142;22;20245;-93
2023/06/11 01:38:08;;;;;;;;;;;;;;;;;;6281464;22;19915;-92
2023/06/11 01:40:34;;;;;;;;;;;;;;;;;;6281879;22;19921;-93
2023/06/11 01:43:00;;;;;;;;;;;;;;;;;;6281497;22;19978;-93
2023/06/11 01:45:26;;;;;;;;;;;;;;;;;;6281511;22;19964;-92
2023/06/11 01:47:52;;;;;;;;;;;;;;;;;;6281309;22;19957;-92
2023/06/11 01:50:18;;;;;;;;;;;;;;;;;;6281082;22;19915;-92
2023/06/11 01:52:44;;;;;;;;;;;;;;;;;;6281369;22;20337;-92
2023/06/11 01:55:10;;;;;;;;;;;;;;;;;;6282579;22;20248;-93
2023/06/11 01:57:35;;;;;;;;;;;;;;;;;;6282095;22;19957;-92
2023/06/11 02:00:03;;;;;;;;;;;;;;;;;;6282502;22;19915;-94
2023/06/11 02:02:31;;;;;;;;;;;;;;;;;;6282364;22;20332;-93
2023/06/11 02:04:57;;;;;;;;;;;;;;;;;;6282135;22;20229;-93
2023/06/11 02:07:23;;;;;;;;;;;;;;;;;;6280862;22;19918;-93
2023/06/11 02:09:49;;;;;;;;;;;;;;;;;;6281547;22;20019;-93
2023/06/11 02:12:16;;;;;;;;;;;;;;;;;;6280968;22;19949;-92
2023/06/11 02:14:42;;;;;;;;;;;;;;;;;;6281712;22;20374;-93
2023/06/11 02:17:09;;;;;;;;;;;;;;;;;;6281365;22;19940;-93
2023/06/11 02:19:35;;;;;;;;;;;;;;;;;;6281633;22;20383;-91
2023/06/11 02:22:01;;;;;;;;;;;;;;;;;;6281501;22;19914;-94
2023/06/11 02:24:27;;;;;;;;;;;;;;;;;;6281431;22;19961;-93
2023/06/11 02:26:53;;;;;;;;;;;;;;;;;;6281400;22;19914;-94
2023/06/11 02:29:19;;;;;;;;;;;;;;;;;;6280526;22;20028;-93
2023/06/11 02:31:45;;;;;;;;;;;;;;;;;;6281693;22;19915;-93
2023/06/11 02:34:11;;;;;;;;;;;;;;;;;;6281381;22;19919;-93
2023/06/11 02:36:37;;;;;;;;;;;;;;;;;;6280154;22;19983;-94
2023/06/11 02:39:03;;;;;;;;;;;;;;;;;;6280776;22;20300;-93
2023/06/11 02:41:29;;;;;;;;;;;;;;;;;;6281625;22;19947;-92
2023/06/11 02:43:55;;;;;;;;;;;;;;;;;;6281772;22;19915;-92
2023/06/11 02:46:21;;;;;;;;;;;;;;;;;;6281076;22;20304;-92
2023/06/11 02:48:47;;;;;;;;;;;;;;;;;;6281944;22;19926;-93
2023/06/11 02:51:13;;;;;;;;;;;;;;;;;;6281927;22;19942;-92
2023/06/11 02:53:39;;;;;;;;;;;;;;;;;;6281810;22;19938;-93
2023/06/11 02:56:05;;;;;;;;;;;;;;;;;;6282250;22;20000;-94
2023/06/11 02:58:31;;;;;;;;;;;;;;;;;;6286294;22;20249;-91
2023/06/11 03:00:57;;;;;;;;;;;;;;;;;;6290830;22;19918;-90
2023/06/11 03:03:23;;;;;;;;;;;;;;;;;;6290390;22;19925;-92
2023/06/11 03:05:49;;;;;;;;;;;;;;;;;;6289031;22;19937;-93
2023/06/11 03:08:14;;;;;;;;;;;;;;;;;;6289723;22;19923;-92
2023/06/11 03:10:40;;;;;;;;;;;;;;;;;;6286607;22;19945;-92
2023/06/11 03:13:06;;;;;;;;;;;;;;;;;;6289136;22;19923;-93
2023/06/11 03:15:33;;;;;;;;;;;;;;;;;;6286570;22;19915;-92
2023/06/11 03:17:59;;;;;;;;;;;;;;;;;;6286163;22;19990;-91
2023/06/11 03:20:26;;;;;;;;;;;;;;;;;;6286522;22;19919;-93
2023/06/11 03:22:52;;;;;;;;;;;;;;;;;;6290909;22;19915;-92
2023/06/11 03:25:18;;;;;;;;;;;;;;;;;;6291544;22;19915;-93
2023/06/11 03:27:44;;;;;;;;;;;;;;;;;;6290535;22;19967;-94
2023/06/11 03:30:11;;;;;;;;;;;;;;;;;;6288586;22;19915;-94
2023/06/11 03:32:38;;;;;;;;;;;;;;;;;;6286934;22;19919;-93
2023/06/11 03:35:04;;;;;;;;;;;;;;;;;;6288948;22;19945;-93
2023/06/11 03:37:30;;;;;;;;;;;;;;;;;;6284721;22;19922;-93
2023/06/11 03:39:56;;;;;;;;;;;;;;;;;;6280564;22;19919;-93
2023/06/11 03:42:22;;;;;;;;;;;;;;;;;;6280875;22;19961;-93
2023/06/11 03:44:48;;;;;;;;;;;;;;;;;;6280550;22;19925;-93
2023/06/11 03:47:14;;;;;;;;;;;;;;;;;;6280953;22;19948;-92
2023/06/11 03:49:39;;;;;;;;;;;;;;;;;;6280161;22;19938;-93
2023/06/11 03:52:05;;;;;;;;;;;;;;;;;;6280185;22;19918;-92
2023/06/11 03:54:32;;;;;;;;;;;;;;;;;;6280225;22;20337;-91
2023/06/11 03:56:58;;;;;;;;;;;;;;;;;;6280808;22;19915;-93
2023/06/11 03:59:24;;;;;;;;;;;;;;;;;;6280622;22;20036;-94
2023/06/11 04:01:50;;;;;;;;;;;;;;;;;;6281506;22;19977;-93
2023/06/11 04:04:16;;;;;;;;;;;;;;;;;;6281077;22;20258;-93
2023/06/11 04:06:42;;;;;;;;;;;;;;;;;;6280624;22;19915;-93
2023/06/11 04:09:08;;;;;;;;;;;;;;;;;;6281278;22;19915;-93
2023/06/11 04:11:34;;;;;;;;;;;;;;;;;;6281024;22;19922;-93
2023/06/11 04:14:00;;;;;;;;;;;;;;;;;;6280279;22;19919;-93
2023/06/11 04:16:26;;;;;;;;;;;;;;;;;;6280054;22;20381;-93
2023/06/11 04:18:52;;;;;;;;;;;;;;;;;;6289403;22;19949;-91
2023/06/11 04:21:18;;;;;;;;;;;;;;;;;;6283802;22;19946;-93
2023/06/11 04:23:44;;;;;;;;;;;;;;;;;;6281021;22;19968;-94
2023/06/11 04:26:10;;;;;;;;;;;;;;;;;;6279866;22;20328;-94
2023/06/11 04:28:36;;;;;;;;;;;;;;;;;;6280713;22;19922;-93
2023/06/11 04:31:02;;;;;;;;;;;;;;;;;;6281389;22;19915;-94
2023/06/11 04:33:36;;;;;;;;;;;;;;;;;;6282795;22;19934;-93
2023/06/11 04:36:04;;;;;;;;;;;;;;;;;;6282392;22;19988;-93
2023/06/11 04:38:31;;;;;;;;;;;;;;;;;;6277293;22;19930;-93
2023/06/11 04:40:57;;;;;;;;;;;;;;;;;;6251871;22;19923;-93
2023/06/11 04:43:23;;;;;;;;;;;;;;;;;;6252725;22;19923;-92
2023/06/11 04:45:49;;;;;;;;;;;;;;;;;;6254229;22;20348;-93
2023/06/11 04:48:20;;;;;;;;;;;;;;;;;;6277363;22;19919;-93
2023/06/11 04:50:48;;;;;;;;;;;;;;;;;;6251449;22;19915;-92
2023/06/11 04:53:22;;;;;;;;;;;;;;;;;;6252381;22;19919;-93
2023/06/11 04:55:49;;;;;;;;;;;;;;;;;;6252467;22;20365;-91
2023/06/11 04:58:15;;;;;;;;;;;;;;;;;;6251954;22;20249;-93
2023/06/11 05:00:42;;;;;;;;;;;;;;;;;;6278533;22;19915;-93
2023/06/11 05:03:08;;;;;;;;;;;;;;;;;;6252519;22;20065;-93
2023/06/11 05:05:34;;;;;;;;;;;;;;;;;;6286278;22;20163;-94
2023/06/11 05:08:01;;;;;;;;;;;;;;;;;;6251523;22;20193;-93
2023/06/11 05:10:27;;;;;;;;;;;;;;;;;;6277021;22;20348;-94
2023/06/11 05:12:53;;;;;;;;;;;;;;;;;;6252552;22;19969;-93
2023/06/11 05:15:19;;;;;;;;;;;;;;;;;;6278133;22;19919;-93
2023/06/11 05:17:47;;;;;;;;;;;;;;;;;;6257297;22;19915;-92
2023/06/11 05:20:13;;;;;;;;;;;;;;;;;;6277867;22;19937;-93
2023/06/11 05:22:40;;;;;;;;;;;;;;;;;;6251182;22;20368;-93
2023/06/11 05:25:07;;;;;;;;;;;;;;;;;;6251885;22;20395;-94
2023/06/11 05:27:33;;;;;;;;;;;;;;;;;;6251523;22;19934;-93
2023/06/11 05:29:58;;;;;;;;;;;;;;;;;;6254109;22;20270;-92
2023/06/11 05:32:24;;;;;;;;;;;;;;;;;;6252200;22;19938;-91
2023/06/11 05:34:50;;;;;;;;;;;;;;;;;;6277267;22;20326;-93
2023/06/11 05:37:17;;;;;;;;;;;;;;;;;;6252514;22;19920;-93
2023/06/11 05:39:42;;;;;;;;;;;;;;;;;;6253104;22;19962;-92
2023/06/11 05:42:08;;;;;;;;;;;;;;;;;;6249988;22;19915;-92
2023/06/11 05:44:35;;;;;;;;;;;;;;;;;;6250588;22;19915;-93
2023/06/11 05:47:01;;;;;;;;;;;;;;;;;;6250233;22;19922;-93
2023/06/11 05:49:26;;;;;;;;;;;;;;;;;;6251387;22;19919;-93
2023/06/11 05:51:52;;;;;;;;;;;;;;;;;;6252742;22;19937;-91
2023/06/11 05:54:19;;;;;;;;;;;;;;;;;;6251441;22;19923;-94
2023/06/11 05:56:45;;;;;;;;;;;;;;;;;;6253170;22;19960;-94
2023/06/11 05:59:11;;;;;;;;;;;;;;;;;;6252478;22;20344;-93
2023/06/11 06:01:37;;;;;;;;;;;;;;;;;;6252804;22;19926;-93
2023/06/11 06:04:03;;;;;;;;;;;;;;;;;;6252444;22;19989;-92
2023/06/11 06:06:30;;;;;;;;;;;;;;;;;;6251198;22;19915;-93
2023/06/11 06:08:56;;;;;;;;;;;;;;;;;;6251141;22;19915;-93
2023/06/11 06:11:21;;;;;;;;;;;;;;;;;;6253064;22;20037;-92
2023/06/11 06:13:47;;;;;;;;;;;;;;;;;;6250283;22;19935;-92
2023/06/11 06:16:13;;;;;;;;;;;;;;;;;;6275115;22;19922;-94
2023/06/11 06:18:40;;;;;;;;;;;;;;;;;;6250456;22;19961;-93
2023/06/11 06:21:06;;;;;;;;;;;;;;;;;;6250699;22;19927;-95
2023/06/11 06:23:32;;;;;;;;;;;;;;;;;;6250134;22;19915;-93
2023/06/11 06:25:58;;;;;;;;;;;;;;;;;;6249449;22;19921;-92
2023/06/11 06:28:24;;;;;;;;;;;;;;;;;;6249202;22;19965;-94
2023/06/11 06:30:50;;;;;;;;;;;;;;;;;;6275164;22;19967;-95
2023/06/11 06:33:16;;;;;;;;;;;;;;;;;;6250273;22;20213;-93
2023/06/11 06:35:42;;;;;;;;;;;;;;;;;;6249636;22;20221;-94
2023/06/11 06:38:08;;;;;;;;;;;;;;;;;;6250937;22;20279;-92
2023/06/11 06:40:34;;;;;;;;;;;;;;;;;;6280108;22;20325;-93
2023/06/11 06:43:00;;;;;;;;;;;;;;;;;;6280303;22;19950;-93
2023/06/11 06:45:26;;;;;;;;;;;;;;;;;;6280428;22;19922;-94
2023/06/11 06:47:52;;;;;;;;;;;;;;;;;;6280421;22;19986;-92
2023/06/11 06:50:18;;;;;;;;;;;;;;;;;;6280557;22;20158;-91
2023/06/11 06:52:44;;;;;;;;;;;;;;;;;;6280450;22;20332;-92
2023/06/11 06:55:09;;;;;;;;;;;;;;;;;;6280318;22;19950;-92
2023/06/11 06:57:35;;;;;;;;;;;;;;;;;;6281156;22;19915;-92
2023/06/11 07:00:01;;;;;;;;;;;;;;;;;;6281065;22;19922;-93
2023/06/11 07:02:27;;;;;;;;;;;;;;;;;;6280365;22;19915;-94
2023/06/11 07:04:53;;;;;;;;;;;;;;;;;;6280942;22;19915;-94
2023/06/11 07:07:19;;;;;;;;;;;;;;;;;;6280171;22;20083;-93
2023/06/11 07:09:45;;;;;;;;;;;;;;;;;;6281060;22;19915;-94
2023/06/11 07:12:11;;;;;;;;;;;;;;;;;;6280768;22;19915;-95
2023/06/11 07:14:37;;;;;;;;;;;;;;;;;;6280429;22;19945;-95
2023/06/11 07:17:03;;;;;;;;;;;;;;;;;;6280141;22;19915;-94
2023/06/11 07:19:29;;;;;;;;;;;;;;;;;;6280452;22;19921;-95
2023/06/11 07:21:55;;;;;;;;;;;;;;;;;;6280892;22;19922;-93
2023/06/11 07:24:21;;;;;;;;;;;;;;;;;;6280743;22;19955;-93
2023/06/11 07:26:47;;;;;;;;;;;;;;;;;;6280623;22;19919;-94
2023/06/11 07:29:13;;;;;;;;;;;;;;;;;;6280490;22;20029;-94
2023/06/11 07:31:39;;;;;;;;;;;;;;;;;;6280052;22;19914;-94
2023/06/11 07:34:06;;;;;;;;;;;;;;;;;;6279889;22;19919;-94
2023/06/11 07:36:32;;;;;;;;;;;;;;;;;;6280280;22;19964;-93
2023/06/11 07:38:58;;;;;;;;;;;;;;;;;;6280129;22;19919;-92
2023/06/11 07:41:24;;;;;;;;;;;;;;;;;;6280040;22;19922;-94
2023/06/11 07:43:49;;;;;;;;;;;;;;;;;;6280843;22;19915;-92
2023/06/11 07:46:15;;;;;;;;;;;;;;;;;;6280404;22;19914;-93
2023/06/11 07:48:43;;;;;;;;;;;;;;;;;;6280501;22;19968;-93
2023/06/11 07:51:08;;;;;;;;;;;;;;;;;;6280309;22;19968;-94
2023/06/11 07:53:37;;;;;;;;;;;;;;;;;;6280121;22;19965;-94
2023/06/11 07:56:03;;;;;;;;;;;;;;;;;;6280364;22;19937;-94
2023/06/11 07:58:28;;;;;;;;;;;;;;;;;;6280681;22;19914;-92
2023/06/11 08:00:54;;;;;;;;;;;;;;;;;;6280509;22;19915;-93
2023/06/11 08:03:21;;;;;;;;;;;;;;;;;;6279457;22;19915;-95
2023/06/11 08:05:47;;;;;;;;;;;;;;;;;;6281743;22;19919;-95
2023/06/11 08:08:12;;;;;;;;;;;;;;;;;;6282731;22;20405;-94
2023/06/11 08:10:38;;;;;;;;;;;;;;;;;;6283122;22;20218;-94
2023/06/11 08:13:04;;;;;;;;;;;;;;;;;;6282284;22;19918;-93
2023/06/11 08:15:30;;;;;;;;;;;;;;;;;;6283253;22;19915;-96
2023/06/11 08:17:56;;;;;;;;;;;;;;;;;;6282709;22;19919;-95
2023/06/11 08:20:22;;;;;;;;;;;;;;;;;;6306633;22;19976;-95
2023/06/11 08:22:48;;;;;;;;;;;;;;;;;;6283047;22;19993;-94
2023/06/11 08:25:14;;;;;;;;;;;;;;;;;;6282679;22;19915;-95
2023/06/11 08:27:40;;;;;;;;;;;;;;;;;;6283066;22;19922;-95
2023/06/11 08:30:06;;;;;;;;;;;;;;;;;;6282019;22;20213;-94
2023/06/11 08:32:32;;;;;;;;;;;;;;;;;;6282684;22;19922;-94
2023/06/11 08:34:58;;;;;;;;;;;;;;;;;;6282213;22;19919;-94
2023/06/11 08:37:24;;;;;;;;;;;;;;;;;;6282542;22;20023;-95
2023/06/11 08:39:50;;;;;;;;;;;;;;;;;;6282087;22;20013;-95
2023/06/11 08:42:16;;;;;;;;;;;;;;;;;;6282416;22;19954;-95
2023/06/11 08:44:42;;;;;;;;;;;;;;;;;;6281955;22;20321;-94
2023/06/11 08:47:10;;;;;;;;;;;;;;;;;;6282647;22;19915;-94
2023/06/11 08:49:36;;;;;;;;;;;;;;;;;;6282671;22;20276;-96
2023/06/11 08:52:05;;;;;;;;;;;;;;;;;;6308713;22;19915;-94
2023/06/11 08:54:31;;;;;;;;;;;;;;;;;;6281726;22;19963;-95
2023/06/11 08:56:57;;;;;;;;;;;;;;;;;;6282055;22;20282;-95
2023/06/11 08:59:23;;;;;;;;;;;;;;;;;;6283048;22;20315;-96
2023/06/11 09:01:52;;;;;;;;;;;;;;;;;;6284327;22;19990;-95
2023/06/11 09:04:18;;;;;;;;;;;;;;;;;;6284605;22;19919;-96
2023/06/11 09:06:44;;;;;;;;;;;;;;;;;;6283428;22;20308;-95
2023/06/11 09:09:11;;;;;;;;;;;;;;;;;;6283410;22;19982;-95
2023/06/11 09:11:37;;;;;;;;;;;;;;;;;;6283219;22;20030;-95
2023/06/11 09:14:03;;;;;;;;;;;;;;;;;;6283740;22;20371;-96
2023/06/11 09:16:32;;;;;;;;;;;;;;;;;;6281743;22;19915;-96
2023/06/11 09:18:58;;;;;;;;;;;;;;;;;;6282597;22;19922;-95
2023/06/11 09:21:24;;;;;;;;;;;;;;;;;;6282487;22;20008;-96
2023/06/11 09:23:51;;;;;;;;;;;;;;;;;;6282459;22;19922;-95
2023/06/11 09:26:17;;;;;;;;;;;;;;;;;;6281322;22;19919;-94
2023/06/11 09:28:53;;;;;;;;;;;;;;;;;;6282051;22;19915;-93
2023/06/11 09:31:22;;;;;;;;;;;;;;;;;;6282333;22;19925;-94
2023/06/11 09:33:48;;;;;;;;;;;;;;;;;;6282641;22;19919;-95
2023/06/11 09:36:14;;;;;;;;;;;;;;;;;;6282261;22;19915;-95
2023/06/11 09:38:40;;;;;;;;;;;;;;;;;;6280921;22;19961;-96
2023/06/11 09:41:06;;;;;;;;;;;;;;;;;;6281904;22;19915;-96
2023/06/11 09:43:33;;;;;;;;;;;;;;;;;;6281641;22;19914;-96
2023/06/11 09:46:00;;;;;;;;;;;;;;;;;;6281612;22;19937;-95
2023/06/11 09:48:26;;;;;;;;;;;;;;;;;;6281437;22;19965;-94
2023/06/11 09:50:52;;;;;;;;;;;;;;;;;;6281869;22;19934;-94
2023/06/11 09:53:18;;;;;;;;;;;;;;;;;;6281384;22;19919;-94
2023/06/11 09:55:44;;;;;;;;;;;;;;;;;;6281583;22;19922;-95
2023/06/11 09:58:10;;;;;;;;;;;;;;;;;;6281877;22;19921;-95
2023/06/11 10:00:36;;;;;;;;;;;;;;;;;;6282194;22;19926;-96
2023/06/11 10:03:02;;;;;;;;;;;;;;;;;;6281251;22;19915;-96
2023/06/11 10:05:28;;;;;;;;;;;;;;;;;;6281645;22;19915;-95
2023/06/11 10:07:55;;;;;;;;;;;;;;;;;;6281702;22;19937;-95
2023/06/11 10:10:23;;;;;;;;;;;;;;;;;;6281352;22;19930;-94
2023/06/11 10:12:50;;;;;;;;;;;;;;;;;;6282119;22;19915;-93
2023/06/11 10:15:15;;;;;;;;;;;;;;;;;;6282410;22;19993;-96
2023/06/11 10:17:41;;;;;;;;;;;;;;;;;;6282165;22;19922;-95
2023/06/11 10:20:07;;;;;;;;;;;;;;;;;;6282364;22;19915;-96
2023/06/11 10:22:34;;;;;;;;;;;;;;;;;;6281740;22;19914;-96
2023/06/11 10:25:00;;;;;;;;;;;;;;;;;;6281880;22;19934;-94
2023/06/11 10:27:26;;;;;;;;;;;;;;;;;;6281503;22;19983;-93
2023/06/11 10:29:52;;;;;;;;;;;;;;;;;;6281724;22;19923;-95
2023/06/11 10:32:18;;;;;;;;;;;;;;;;;;6282377;22;20156;-92
2023/06/11 10:34:44;;;;;;;;;;;;;;;;;;6282339;22;19919;-93
2023/06/11 10:37:10;;;;;;;;;;;;;;;;;;6282483;22;19915;-92
2023/06/11 10:39:36;;;;;;;;;;;;;;;;;;6283432;22;19929;-92
2023/06/11 10:42:02;;;;;;;;;;;;;;;;;;6282300;22;19915;-95
2023/06/11 10:44:29;;;;;;;;;;;;;;;;;;6282306;22;19922;-93
2023/06/11 10:46:55;;;;;;;;;;;;;;;;;;6281775;22;19941;-96
2023/06/11 10:49:21;;;;;;;;;;;;;;;;;;6281875;22;19938;-95
2023/06/11 10:51:47;;;;;;;;;;;;;;;;;;6281695;22;19919;-95
2023/06/11 10:54:13;;;;;;;;;;;;;;;;;;6281696;22;19958;-94
2023/06/11 10:56:39;;;;;;;;;;;;;;;;;;6281966;22;19915;-94
2023/06/11 10:59:08;;;;;;;;;;;;;;;;;;6282000;22;19961;-95
2023/06/11 11:01:34;;;;;;;;;;;;;;;;;;6281496;22;19989;-94
2023/06/11 11:04:00;;;;;;;;;;;;;;;;;;6281841;22;20059;-95
2023/06/11 11:06:28;;;;;;;;;;;;;;;;;;6281915;22;19922;-95
2023/06/11 11:08:57;;;;;;;;;;;;;;;;;;6281280;22;19922;-93
2023/06/11 11:11:23;;;;;;;;;;;;;;;;;;6281860;22;20276;-94
2023/06/11 11:13:50;;;;;;;;;;;;;;;;;;6281928;22;19919;-95
2023/06/11 11:16:16;;;;;;;;;;;;;;;;;;6282148;22;19915;-95
2023/06/11 11:18:43;;;;;;;;;;;;;;;;;;6281317;22;19914;-92
2023/06/11 11:21:09;;;;;;;;;;;;;;;;;;6281307;22;19963;-92
2023/06/11 11:23:35;;;;;;;;;;;;;;;;;;6280697;22;19915;-94
2023/06/11 11:26:03;;;;;;;;;;;;;;;;;;6280695;22;19921;-95
2023/06/11 11:28:28;;;;;;;;;;;;;;;;;;6280596;22;19915;-95
2023/06/11 11:30:54;;;;;;;;;;;;;;;;;;6281404;22;19926;-94
2023/06/11 11:33:20;;;;;;;;;;;;;;;;;;6281767;22;20123;-95
2023/06/11 11:35:46;;;;;;;;;;;;;;;;;;6280966;22;19915;-93
2023/06/11 11:38:12;;;;;;;;;;;;;;;;;;6280498;22;19980;-93
2023/06/11 11:40:38;;;;;;;;;;;;;;;;;;6282374;22;20267;-94
2023/06/11 11:43:04;;;;;;;;;;;;;;;;;;6283370;22;20010;-95
2023/06/11 11:45:30;;;;;;;;;;;;;;;;;;6283434;22;19986;-95
2023/06/11 11:47:56;;;;;;;;;;;;;;;;;;6283193;22;19914;-95
2023/06/11 11:50:27;;;;;;;;;;;;;;;;;;6282889;22;20204;-93
2023/06/11 11:52:52;;;;;;;;;;;;;;;;;;6284120;22;19915;-94
2023/06/11 11:55:18;;;;;;;;;;;;;;;;;;6283154;22;19930;-94
2023/06/11 11:57:45;;;;;;;;;;;;;;;;;;6282564;22;19915;-94
2023/06/11 12:00:11;;;;;;;;;;;;;;;;;;6282793;22;19950;-92
2023/06/11 12:02:37;;;;;;;;;;;;;;;;;;6282670;22;19926;-92
2023/06/11 12:05:03;;;;;;;;;;;;;;;;;;6282749;22;19914;-96
2023/06/11 12:07:29;;;;;;;;;;;;;;;;;;6282896;22;19942;-92
2023/06/11 12:09:55;;;;;;;;;;;;;;;;;;6282865;22;19926;-92
2023/06/11 12:12:21;;;;;;;;;;;;;;;;;;6283046;22;19923;-93
2023/06/11 12:14:47;;;;;;;;;;;;;;;;;;6282745;22;19923;-94
2023/06/11 12:17:13;;;;;;;;;;;;;;;;;;6282785;22;19937;-94
2023/06/11 12:19:39;;;;;;;;;;;;;;;;;;6282809;22;19947;-91
2023/06/11 12:22:05;;;;;;;;;;;;;;;;;;6282764;22;19915;-92
2023/06/11 12:24:32;;;;;;;;;;;;;;;;;;6282895;22;19915;-94
2023/06/11 12:26:59;;;;;;;;;;;;;;;;;;6282811;22;19915;-96
2023/06/11 12:29:25;;;;;;;;;;;;;;;;;;6283286;22;19915;-93
2023/06/11 12:31:51;;;;;;;;;;;;;;;;;;6283090;22;19922;-92
2023/06/11 12:34:18;;;;;;;;;;;;;;;;;;6283482;22;19923;-95
2023/06/11 12:36:44;;;;;;;;;;;;;;;;;;6283156;22;19926;-95
2023/06/11 12:39:13;;;;;;;;;;;;;;;;;;6283337;22;19919;-96
2023/06/11 12:41:40;;;;;;;;;;;;;;;;;;6283357;22;20004;-94
2023/06/11 12:44:06;;;;;;;;;;;;;;;;;;6283565;22;19960;-96
2023/06/11 12:46:31;;;;;;;;;;;;;;;;;;6284008;22;19980;-95
2023/06/11 12:48:57;;;;;;;;;;;;;;;;;;6283860;22;19929;-96
2023/06/11 12:51:23;;;;;;;;;;;;;;;;;;6288117;22;19915;-96
2023/06/11 12:53:52;;;;;;;;;;;;;;;;;;6301999;22;19917;-94
2023/06/11 12:56:18;;;;;;;;;;;;;;;;;;6306053;22;19930;-93
2023/06/11 12:58:44;;;;;;;;;;;;;;;;;;6303850;22;19919;-93
2023/06/11 13:01:10;;;;;;;;;;;;;;;;;;6299077;22;19939;-94
2023/06/11 13:03:36;;;;;;;;;;;;;;;;;;6298460;22;20346;-94
2023/06/11 13:06:02;;;;;;;;;;;;;;;;;;6293713;22;19983;-94
2023/06/11 13:08:29;;;;;;;;;;;;;;;;;;6295372;22;19986;-93
2023/06/11 13:10:55;;;;;;;;;;;;;;;;;;6293494;22;19998;-96
2023/06/11 13:13:21;;;;;;;;;;;;;;;;;;6292916;22;19934;-95
2023/06/11 13:15:47;;;;;;;;;;;;;;;;;;6293329;22;19958;-95
2023/06/11 13:18:16;;;;;;;;;;;;;;;;;;6296889;22;19914;-96
2023/06/11 13:20:42;;;;;;;;;;;;;;;;;;6323070;22;19990;-93
2023/06/11 13:23:08;;;;;;;;;;;;;;;;;;6296215;22;19930;-93
2023/06/11 13:25:36;;;;;;;;;;;;;;;;;;6295317;22;19915;-93
2023/06/11 13:28:02;;;;;;;;;;;;;;;;;;6294114;22;19914;-93
2023/06/11 13:30:28;;;;;;;;;;;;;;;;;;6294464;22;19955;-95
2023/06/11 13:32:54;;;;;;;;;;;;;;;;;;6286758;22;19919;-95
2023/06/11 13:35:20;;;;;;;;;;;;;;;;;;6282661;22;19915;-93
2023/06/11 13:37:46;;;;;;;;;;;;;;;;;;6281846;22;19985;-93
2023/06/11 13:40:12;;;;;;;;;;;;;;;;;;6282659;22;19919;-92
2023/06/11 13:42:39;;;;;;;;;;;;;;;;;;6282455;22;19999;-92
2023/06/11 13:45:05;;;;;;;;;;;;;;;;;;6282611;22;19915;-92
2023/06/11 13:47:31;;;;;;;;;;;;;;;;;;6281614;22;19915;-91
2023/06/11 13:49:57;;;;;;;;;;;;;;;;;;6281705;22;19990;-92
2023/06/11 13:52:26;;;;;;;;;;;;;;;;;;6281114;22;20380;-93
2023/06/11 13:54:52;;;;;;;;;;;;;;;;;;6281261;22;19926;-94
2023/06/11 13:57:18;;;;;;;;;;;;;;;;;;6281572;22;20245;-96
2023/06/11 13:59:44;;;;;;;;;;;;;;;;;;6281762;22;19915;-94
2023/06/11 14:02:10;;;;;;;;;;;;;;;;;;6281352;22;19922;-94
2023/06/11 14:04:36;;;;;;;;;;;;;;;;;;6281429;22;19985;-96
2023/06/11 14:07:03;;;;;;;;;;;;;;;;;;6282026;22;19921;-96
2023/06/11 14:09:29;;;;;;;;;;;;;;;;;;6281476;22;19915;-96
2023/06/11 14:11:55;;;;;;;;;;;;;;;;;;6281289;22;19922;-93
2023/06/11 14:14:22;;;;;;;;;;;;;;;;;;6281830;22;19919;-95
2023/06/11 14:16:48;;;;;;;;;;;;;;;;;;6281599;22;19915;-96
2023/06/11 14:19:13;;;;;;;;;;;;;;;;;;6281569;22;19915;-96
2023/06/11 14:21:39;;;;;;;;;;;;;;;;;;6281244;22;20004;-96
2023/06/11 14:24:05;;;;;;;;;;;;;;;;;;6281100;22;19915;-95
2023/06/11 14:26:31;;;;;;;;;;;;;;;;;;6281157;22;19915;-95
2023/06/11 14:28:57;;;;;;;;;;;;;;;;;;6281059;22;19918;-95
2023/06/11 14:31:23;;;;;;;;;;;;;;;;;;6281159;22;19941;-95
2023/06/11 14:33:49;;;;;;;;;;;;;;;;;;6281320;22;19919;-94
2023/06/11 14:36:15;;;;;;;;;;;;;;;;;;6282246;22;19992;-94
2023/06/11 14:38:41;;;;;;;;;;;;;;;;;;6281166;22;20361;-95
2023/06/11 14:41:07;;;;;;;;;;;;;;;;;;6283276;22;19919;-95
2023/06/11 14:43:33;;;;;;;;;;;;;;;;;;6280682;22;19915;-94
2023/06/11 14:45:59;;;;;;;;;;;;;;;;;;6281178;22;19957;-94
2023/06/11 14:48:25;;;;;;;;;;;;;;;;;;6281317;22;19915;-94
2023/06/11 14:50:51;;;;;;;;;;;;;;;;;;6280910;22;19922;-94
2023/06/11 14:53:17;;;;;;;;;;;;;;;;;;6280979;22;19929;-95
2023/06/11 14:55:43;;;;;;;;;;;;;;;;;;6281251;22;19914;-94
2023/06/11 14:58:12;;;;;;;;;;;;;;;;;;6281034;22;19915;-94
2023/06/11 15:00:38;;;;;;;;;;;;;;;;;;6281407;22;19960;-94
2023/06/11 15:03:04;;;;;;;;;;;;;;;;;;6280743;22;20359;-95
2023/06/11 15:05:30;;;;;;;;;;;;;;;;;;6280865;22;19954;-94
2023/06/11 15:07:56;;;;;;;;;;;;;;;;;;6280806;22;19922;-95
2023/06/11 15:10:23;;;;;;;;;;;;;;;;;;6281631;22;19976;-94
2023/06/11 15:12:49;;;;;;;;;;;;;;;;;;6280997;22;19922;-95
2023/06/11 15:15:15;;;;;;;;;;;;;;;;;;6282104;22;19919;-95
2023/06/11 15:17:41;;;;;;;;;;;;;;;;;;6282147;22;19950;-95
2023/06/11 15:20:07;;;;;;;;;;;;;;;;;;6283994;22;19972;-95
2023/06/11 15:22:38;;;;;;;;;;;;;;;;;;6282002;22;20288;-95
2023/06/11 15:25:04;;;;;;;;;;;;;;;;;;6282456;22;20347;-95
2023/06/11 15:27:30;;;;;;;;;;;;;;;;;;6281862;22;19922;-95
2023/06/11 15:29:56;;;;;;;;;;;;;;;;;;6280263;22;19914;-95
2023/06/11 15:32:22;;;;;;;;;;;;;;;;;;6283135;22;19914;-95
2023/06/11 15:34:49;;;;;;;;;;;;;;;;;;6280477;22;20012;-94
2023/06/11 15:37:15;;;;;;;;;;;;;;;;;;6280310;22;19915;-95
2023/06/11 15:39:41;;;;;;;;;;;;;;;;;;6281345;22;19926;-95
2023/06/11 15:42:06;;;;;;;;;;;;;;;;;;6281186;22;19925;-94
2023/06/11 15:44:32;;;;;;;;;;;;;;;;;;6280564;22;19994;-96
2023/06/11 15:46:59;;;;;;;;;;;;;;;;;;6281183;22;20351;-95
2023/06/11 15:49:25;;;;;;;;;;;;;;;;;;6280624;22;19937;-96
2023/06/11 15:51:51;;;;;;;;;;;;;;;;;;6281956;22;19946;-96
2023/06/11 15:54:17;;;;;;;;;;;;;;;;;;6280473;22;20194;-93
2023/06/11 15:56:47;;;;;;;;;;;;;;;;;;6280457;22;19977;-95
2023/06/11 15:59:13;;;;;;;;;;;;;;;;;;6280916;22;19915;-94
2023/06/11 16:01:39;;;;;;;;;;;;;;;;;;6281356;22;19961;-94
2023/06/11 16:04:05;;;;;;;;;;;;;;;;;;6281679;22;20260;-94
2023/06/11 16:06:31;;;;;;;;;;;;;;;;;;6281811;22;19915;-94
2023/06/11 16:08:57;;;;;;;;;;;;;;;;;;6280773;22;19923;-93
2023/06/11 16:11:23;;;;;;;;;;;;;;;;;;6281205;22;19938;-94
2023/06/11 16:13:49;;;;;;;;;;;;;;;;;;6280731;22;19918;-94
2023/06/11 16:16:15;;;;;;;;;;;;;;;;;;6280680;22;19915;-93
2023/06/11 16:18:41;;;;;;;;;;;;;;;;;;6280894;22;19922;-94
2023/06/11 16:21:07;;;;;;;;;;;;;;;;;;6280477;22;19925;-95
2023/06/11 16:23:33;;;;;;;;;;;;;;;;;;6281041;22;20133;-95
2023/06/11 16:25:58;;;;;;;;;;;;;;;;;;6281603;22;20335;-93
2023/06/11 16:28:25;;;;;;;;;;;;;;;;;;6282212;22;19935;-95
2023/06/11 16:30:51;;;;;;;;;;;;;;;;;;6282306;22;19947;-95
2023/06/11 16:33:16;;;;;;;;;;;;;;;;;;6282631;22;19941;-94
2023/06/11 16:35:42;;;;;;;;;;;;;;;;;;6282676;22;19976;-94
2023/06/11 16:38:08;;;;;;;;;;;;;;;;;;6282981;22;20300;-94